createdAt,value
2018-05-16T00:00:51.634Z,17.45
2018-05-16T00:01:51.317Z,17.44
2018-05-16T00:02:50.988Z,17.44
2018-05-16T00:03:50.948Z,17.42
2018-05-16T00:04:50.833Z,17.41
2018-05-16T00:05:50.803Z,17.38
2018-05-16T00:07:10.913Z,17.30
2018-05-16T00:08:11.962Z,17.26
2018-05-16T00:09:11.401Z,17.23
2018-05-16T00:10:11.860Z,17.16
2018-05-16T00:11:11.939Z,17.12
2018-05-16T00:12:11.983Z,17.06
2018-05-16T00:13:12.004Z,17.01
2018-05-16T00:14:32.633Z,16.97
2018-05-16T00:15:33.245Z,17.01
2018-05-16T00:16:33.296Z,16.97
2018-05-16T00:17:33.152Z,16.97
2018-05-16T00:18:33.064Z,16.96
2018-05-16T00:19:53.861Z,16.96
2018-05-16T00:20:53.954Z,16.97
2018-05-16T00:21:53.603Z,16.96
2018-05-16T00:22:54.282Z,16.91
2018-05-16T00:23:53.998Z,16.86
2018-05-16T00:24:53.597Z,16.79
2018-05-16T00:25:54.132Z,16.78
2018-05-16T00:26:54.153Z,16.78
2018-05-16T00:27:54.312Z,16.83
2018-05-16T00:28:54.330Z,16.79
2018-05-16T00:30:14.496Z,16.76
2018-05-16T00:31:15.135Z,16.74
2018-05-16T00:32:14.862Z,16.76
2018-05-16T00:33:14.846Z,16.76
2018-05-16T00:34:15.417Z,16.75
2018-05-16T00:35:36.029Z,16.76
2018-05-16T00:37:17.116Z,16.75
2018-05-16T00:38:17.824Z,16.72
2018-05-16T00:39:17.429Z,16.71
2018-05-16T00:40:17.522Z,16.74
2018-05-16T00:41:18.430Z,16.75
2018-05-16T00:42:18.277Z,16.74
2018-05-16T00:43:17.816Z,16.72
2018-05-16T00:44:17.821Z,16.71
2018-05-16T00:45:17.816Z,16.71
2018-05-16T00:46:17.458Z,16.69
2018-05-16T00:47:17.856Z,16.69
2018-05-16T00:48:17.326Z,16.69
2018-05-16T00:49:18.263Z,16.69
2018-05-16T00:50:38.568Z,16.68
2018-05-16T00:51:39.026Z,16.68
2018-05-16T00:52:59.757Z,16.68
2018-05-16T00:54:00.746Z,16.71
2018-05-16T00:55:00.678Z,16.71
2018-05-16T00:56:00.591Z,16.69
2018-05-16T00:57:00.031Z,16.68
2018-05-16T00:58:20.718Z,16.66
2018-05-16T00:59:21.479Z,16.66
2018-05-16T01:00:21.307Z,16.66
2018-05-16T01:01:20.937Z,16.64
2018-05-16T01:02:21.544Z,16.58
2018-05-16T01:03:21.559Z,16.56
2018-05-16T01:04:21.130Z,16.54
2018-05-16T01:05:21.654Z,16.51
2018-05-16T01:06:21.240Z,16.50
2018-05-16T01:07:20.839Z,16.47
2018-05-16T01:08:21.672Z,16.46
2018-05-16T01:09:21.704Z,16.46
2018-05-16T01:10:21.386Z,16.43
2018-05-16T01:11:21.139Z,16.38
2018-05-16T01:12:21.234Z,16.33
2018-05-16T01:13:20.876Z,16.29
2018-05-16T01:14:21.498Z,16.29
2018-05-16T01:15:21.314Z,16.26
2018-05-16T01:16:21.151Z,16.20
2018-05-16T01:17:21.105Z,16.13
2018-05-16T01:18:20.666Z,16.08
2018-05-16T01:19:21.162Z,16.05
2018-05-16T01:20:21.156Z,16.01
2018-05-16T01:21:21.583Z,15.95
2018-05-16T01:22:21.689Z,15.88
2018-05-16T01:23:21.217Z,15.80
2018-05-16T01:24:21.047Z,15.76
2018-05-16T01:25:21.637Z,15.72
2018-05-16T01:26:21.287Z,15.65
2018-05-16T01:27:21.265Z,15.59
2018-05-16T01:28:20.878Z,15.55
2018-05-16T01:29:21.461Z,15.51
2018-05-16T01:30:21.032Z,15.46
2018-05-16T01:31:21.580Z,15.44
2018-05-16T01:32:21.487Z,15.42
2018-05-16T01:33:21.292Z,15.43
2018-05-16T01:34:20.851Z,15.40
2018-05-16T01:35:33.630Z,15.36
2018-05-16T01:36:21.123Z,15.29
2018-05-16T01:37:20.993Z,15.27
2018-05-16T01:38:21.543Z,15.24
2018-05-16T01:39:21.131Z,15.21
2018-05-16T01:40:20.806Z,15.18
2018-05-16T01:41:21.463Z,15.15
2018-05-16T01:42:21.080Z,15.17
2018-05-16T01:43:21.515Z,15.10
2018-05-16T01:44:21.351Z,15.10
2018-05-16T01:45:21.297Z,15.10
2018-05-16T01:46:21.074Z,15.07
2018-05-16T01:47:21.631Z,14.99
2018-05-16T01:48:21.196Z,14.89
2018-05-16T01:49:21.200Z,14.84
2018-05-16T01:50:21.250Z,14.79
2018-05-16T01:51:21.095Z,14.73
2018-05-16T01:53:05.118Z,14.65
2018-05-16T01:54:06.090Z,14.63
2018-05-16T01:55:05.828Z,14.63
2018-05-16T01:56:05.818Z,14.62
2018-05-16T01:57:05.341Z,14.60
2018-05-16T01:58:05.921Z,14.59
2018-05-16T01:59:05.840Z,14.58
2018-05-16T02:00:26.223Z,14.58
2018-05-16T02:01:27.276Z,14.54
2018-05-16T02:03:30.605Z,14.53
2018-05-16T02:04:31.274Z,14.51
2018-05-16T02:05:31.167Z,14.50
2018-05-16T02:07:32.398Z,14.50
2018-05-16T02:08:33.036Z,14.45
2018-05-16T02:09:32.887Z,14.43
2018-05-16T02:10:32.789Z,14.37
2018-05-16T02:11:33.758Z,14.33
2018-05-16T02:12:32.822Z,14.30
2018-05-16T02:13:32.512Z,14.28
2018-05-16T02:14:53.775Z,14.25
2018-05-16T02:15:54.842Z,14.22
2018-05-16T02:16:54.459Z,14.18
2018-05-16T02:17:54.147Z,14.17
2018-05-16T02:18:54.190Z,14.15
2018-05-16T02:19:54.739Z,14.08
2018-05-16T02:20:54.905Z,14.04
2018-05-16T02:21:54.562Z,13.99
2018-05-16T02:22:54.383Z,13.95
2018-05-16T02:23:54.174Z,13.90
2018-05-16T02:24:54.212Z,13.93
2018-05-16T02:25:54.215Z,13.89
2018-05-16T02:26:54.679Z,13.90
2018-05-16T02:27:54.454Z,13.90
2018-05-16T02:28:54.055Z,13.92
2018-05-16T02:29:54.721Z,13.90
2018-05-16T02:30:54.813Z,13.89
2018-05-16T02:31:54.726Z,13.87
2018-05-16T02:32:54.271Z,13.86
2018-05-16T02:33:54.272Z,13.83
2018-05-16T02:34:54.157Z,13.81
2018-05-16T02:35:54.615Z,13.81
2018-05-16T02:36:54.240Z,13.79
2018-05-16T02:37:53.918Z,13.77
2018-05-16T02:38:54.562Z,13.77
2018-05-16T02:39:54.413Z,13.74
2018-05-16T02:41:15.042Z,13.71
2018-05-16T02:42:16.003Z,13.70
2018-05-16T02:43:14.630Z,13.71
2018-05-16T02:44:15.403Z,13.70
2018-05-16T02:45:15.265Z,13.68
2018-05-16T02:46:15.138Z,13.70
2018-05-16T02:47:14.760Z,13.72
2018-05-16T02:48:56.521Z,13.68
2018-05-16T02:49:57.184Z,13.70
2018-05-16T02:51:37.860Z,13.71
2018-05-16T02:52:38.351Z,13.68
2018-05-16T02:53:38.394Z,13.65
2018-05-16T02:54:37.964Z,13.65
2018-05-16T02:55:38.582Z,13.65
2018-05-16T02:56:38.157Z,13.68
2018-05-16T02:57:59.545Z,13.67
2018-05-16T02:59:00.347Z,13.63
2018-05-16T02:59:59.871Z,13.59
2018-05-16T03:00:59.798Z,13.53
2018-05-16T03:01:59.560Z,13.49
2018-05-16T03:03:00.215Z,13.49
2018-05-16T03:03:59.937Z,13.46
2018-05-16T03:04:59.713Z,13.46
2018-05-16T03:05:59.725Z,13.47
2018-05-16T03:07:00.218Z,13.50
2018-05-16T03:08:00.274Z,13.46
2018-05-16T03:09:00.330Z,13.46
2018-05-16T03:09:59.955Z,13.46
2018-05-16T03:11:20.054Z,13.47
2018-05-16T03:12:21.395Z,13.44
2018-05-16T03:13:21.377Z,13.41
2018-05-16T03:14:21.388Z,13.37
2018-05-16T03:15:41.697Z,13.30
2018-05-16T03:16:42.260Z,13.35
2018-05-16T03:17:42.286Z,13.38
2018-05-16T03:18:42.398Z,13.33
2018-05-16T03:19:42.418Z,13.33
2018-05-16T03:20:42.058Z,13.35
2018-05-16T03:21:41.817Z,13.31
2018-05-16T03:22:41.484Z,13.31
2018-05-16T03:23:42.470Z,13.30
2018-05-16T03:24:42.065Z,13.33
2018-05-16T03:25:41.734Z,13.37
2018-05-16T03:26:42.717Z,13.37
2018-05-16T03:27:42.307Z,13.33
2018-05-16T03:28:42.408Z,13.27
2018-05-16T03:29:42.483Z,13.27
2018-05-16T03:30:42.285Z,13.25
2018-05-16T03:31:42.294Z,13.23
2018-05-16T03:32:42.179Z,13.23
2018-05-16T03:33:41.957Z,13.22
2018-05-16T03:34:41.988Z,13.19
2018-05-16T03:35:41.555Z,13.18
2018-05-16T03:36:42.114Z,13.18
2018-05-16T03:38:02.615Z,13.16
2018-05-16T03:39:03.236Z,13.16
2018-05-16T03:40:03.291Z,13.15
2018-05-16T03:41:02.789Z,13.18
2018-05-16T03:42:02.793Z,13.15
2018-05-16T03:43:02.932Z,13.12
2018-05-16T03:44:02.894Z,13.12
2018-05-16T03:45:03.084Z,13.12
2018-05-16T03:46:02.727Z,13.18
2018-05-16T03:47:02.379Z,13.16
2018-05-16T03:48:03.503Z,13.16
2018-05-16T03:49:03.561Z,13.16
2018-05-16T03:50:03.478Z,13.13
2018-05-16T03:51:03.162Z,13.15
2018-05-16T03:52:03.357Z,13.12
2018-05-16T03:53:03.059Z,13.09
2018-05-16T03:54:03.136Z,13.08
2018-05-16T03:55:03.211Z,13.08
2018-05-16T03:56:03.383Z,13.05
2018-05-16T03:57:03.330Z,13.09
2018-05-16T03:58:02.973Z,13.08
2018-05-16T03:59:02.733Z,13.03
2018-05-16T04:00:02.894Z,12.97
2018-05-16T04:01:02.558Z,12.91
2018-05-16T04:02:02.693Z,12.83
2018-05-16T04:03:02.773Z,12.79
2018-05-16T04:04:03.098Z,12.76
2018-05-16T04:05:03.361Z,12.73
2018-05-16T04:06:02.646Z,12.72
2018-05-16T04:07:03.447Z,12.70
2018-05-16T04:08:04.226Z,12.75
2018-05-16T04:09:02.841Z,12.76
2018-05-16T04:10:02.710Z,12.76
2018-05-16T04:11:02.771Z,12.76
2018-05-16T04:12:04.016Z,12.78
2018-05-16T04:13:03.189Z,12.79
2018-05-16T04:14:02.938Z,12.80
2018-05-16T04:15:02.584Z,12.83
2018-05-16T04:16:02.679Z,12.82
2018-05-16T04:17:03.448Z,12.79
2018-05-16T04:18:02.271Z,12.80
2018-05-16T04:19:44.691Z,12.82
2018-05-16T04:20:44.408Z,12.83
2018-05-16T04:22:05.862Z,12.87
2018-05-16T04:23:06.547Z,12.90
2018-05-16T04:24:06.259Z,12.93
2018-05-16T04:25:06.191Z,12.95
2018-05-16T04:27:29.026Z,12.87
2018-05-16T04:28:29.971Z,12.83
2018-05-16T04:29:30.203Z,12.76
2018-05-16T04:30:29.970Z,12.68
2018-05-16T04:31:30.084Z,12.68
2018-05-16T04:32:50.875Z,12.65
2018-05-16T04:33:51.106Z,12.64
2018-05-16T04:34:50.779Z,12.61
2018-05-16T04:35:50.873Z,12.61
2018-05-16T04:36:50.566Z,12.61
2018-05-16T04:37:51.647Z,12.64
2018-05-16T04:38:52.672Z,12.65
2018-05-16T04:40:33.601Z,12.70
2018-05-16T04:41:33.299Z,12.73
2018-05-16T04:42:34.402Z,12.79
2018-05-16T04:43:34.416Z,12.85
2018-05-16T04:44:34.965Z,12.91
2018-05-16T04:45:55.005Z,13.00
2018-05-16T04:46:55.111Z,13.08
2018-05-16T04:47:54.928Z,13.13
2018-05-16T04:48:54.834Z,13.18
2018-05-16T04:49:55.521Z,13.23
2018-05-16T04:51:15.740Z,13.33
2018-05-16T04:52:16.871Z,13.41
2018-05-16T04:53:16.513Z,13.47
2018-05-16T04:54:16.232Z,13.56
2018-05-16T04:55:16.006Z,13.62
2018-05-16T04:56:16.081Z,13.71
2018-05-16T04:57:15.852Z,13.78
2018-05-16T04:58:16.690Z,13.83
2018-05-16T04:59:16.480Z,13.87
2018-05-16T05:00:16.129Z,13.90
2018-05-16T05:01:16.292Z,13.96
2018-05-16T05:02:16.123Z,14.03
2018-05-16T05:03:16.765Z,14.07
2018-05-16T05:04:16.858Z,14.11
2018-05-16T05:05:17.051Z,14.15
2018-05-16T05:06:15.840Z,14.20
2018-05-16T05:07:16.541Z,14.23
2018-05-16T05:08:16.684Z,14.26
2018-05-16T05:09:16.861Z,14.29
2018-05-16T05:10:16.035Z,14.30
2018-05-16T05:11:15.722Z,14.35
2018-05-16T05:12:16.576Z,14.37
2018-05-16T05:13:16.660Z,14.43
2018-05-16T05:14:16.793Z,14.45
2018-05-16T05:15:57.865Z,14.59
2018-05-16T05:16:59.302Z,14.68
2018-05-16T05:17:58.237Z,14.78
2018-05-16T05:18:58.081Z,14.89
2018-05-16T05:19:59.129Z,15.03
2018-05-16T05:21:18.814Z,15.27
2018-05-16T05:22:19.465Z,15.51
2018-05-16T05:23:19.358Z,15.79
2018-05-16T05:24:19.175Z,16.04
2018-05-16T05:25:19.363Z,16.23
2018-05-16T05:26:19.185Z,16.31
2018-05-16T05:27:19.329Z,16.38
2018-05-16T05:28:19.528Z,16.41
2018-05-16T05:29:19.572Z,16.38
2018-05-16T05:30:19.543Z,16.32
2018-05-16T05:31:19.325Z,16.29
2018-05-16T05:32:18.941Z,16.31
2018-05-16T05:33:18.818Z,16.35
2018-05-16T05:34:20.065Z,16.41
2018-05-16T05:35:18.827Z,16.51
2018-05-16T05:36:19.619Z,16.61
2018-05-16T05:37:19.780Z,16.66
2018-05-16T05:38:19.795Z,16.71
2018-05-16T05:39:20.032Z,16.74
2018-05-16T05:40:40.314Z,16.76
2018-05-16T05:41:40.075Z,16.78
2018-05-16T05:42:39.879Z,16.79
2018-05-16T05:43:40.703Z,16.79
2018-05-16T05:44:40.305Z,16.84
2018-05-16T05:45:40.182Z,16.89
2018-05-16T05:46:41.318Z,16.87
2018-05-16T05:47:41.408Z,16.84
2018-05-16T05:48:40.552Z,16.81
2018-05-16T05:49:40.785Z,16.83
2018-05-16T05:50:40.534Z,16.81
2018-05-16T05:51:40.613Z,16.81
2018-05-16T05:52:40.432Z,16.79
2018-05-16T05:53:40.599Z,16.79
2018-05-16T05:54:40.820Z,16.81
2018-05-16T05:55:41.192Z,16.86
2018-05-16T05:56:40.837Z,16.90
2018-05-16T05:57:41.096Z,16.96
2018-05-16T05:58:39.986Z,16.97
2018-05-16T05:59:40.804Z,17.01
2018-05-16T06:00:40.514Z,17.01
2018-05-16T06:01:40.786Z,17.02
2018-05-16T06:02:40.602Z,17.08
2018-05-16T06:03:40.521Z,17.06
2018-05-16T06:05:00.882Z,17.08
2018-05-16T06:06:02.108Z,17.11
2018-05-16T06:07:01.344Z,17.09
2018-05-16T06:08:22.298Z,17.11
2018-05-16T06:09:22.121Z,17.15
2018-05-16T06:10:22.389Z,17.19
2018-05-16T06:11:22.656Z,17.20
2018-05-16T06:12:22.426Z,17.16
2018-05-16T06:13:22.657Z,17.16
2018-05-16T06:14:22.868Z,17.19
2018-05-16T06:15:23.184Z,17.24
2018-05-16T06:16:23.644Z,17.30
2018-05-16T06:17:22.929Z,17.29
2018-05-16T06:18:22.881Z,17.27
2018-05-16T06:19:23.213Z,17.27
2018-05-16T06:20:43.717Z,17.22
2018-05-16T06:21:44.932Z,17.16
2018-05-16T06:22:44.170Z,17.16
2018-05-16T06:24:05.346Z,17.22
2018-05-16T06:25:05.091Z,17.20
2018-05-16T06:26:04.983Z,17.24
2018-05-16T06:27:26.041Z,17.30
2018-05-16T06:28:27.288Z,17.36
2018-05-16T06:29:26.232Z,17.38
2018-05-16T06:30:26.112Z,17.41
2018-05-16T06:31:30.821Z,17.44
2018-05-16T06:32:26.618Z,17.51
2018-05-16T06:33:47.686Z,17.63
2018-05-16T06:34:49.372Z,17.67
2018-05-16T06:35:48.108Z,17.70
2018-05-16T06:36:48.024Z,17.78
2018-05-16T06:37:48.239Z,17.82
2018-05-16T06:38:48.239Z,17.78
2018-05-16T06:39:48.010Z,17.76
2018-05-16T06:40:48.151Z,17.71
2018-05-16T06:41:48.031Z,17.64
2018-05-16T06:42:48.832Z,17.59
2018-05-16T06:43:47.790Z,17.59
2018-05-16T06:44:47.563Z,17.63
2018-05-16T06:45:47.503Z,17.65
2018-05-16T06:46:48.310Z,17.60
2018-05-16T06:47:48.377Z,17.59
2018-05-16T06:48:48.136Z,17.64
2018-05-16T06:49:48.114Z,17.67
2018-05-16T06:50:48.043Z,17.76
2018-05-16T06:51:47.859Z,17.82
2018-05-16T06:52:48.011Z,17.92
2018-05-16T06:53:47.889Z,17.97
2018-05-16T06:54:48.376Z,18.00
2018-05-16T06:56:08.953Z,18.04
2018-05-16T06:57:09.853Z,18.13
2018-05-16T06:58:10.040Z,18.11
2018-05-16T06:59:52.493Z,18.11
2018-05-16T07:00:52.404Z,18.10
2018-05-16T07:01:53.867Z,18.04
2018-05-16T07:03:13.725Z,17.95
2018-05-16T07:04:14.692Z,18.01
2018-05-16T07:05:15.026Z,18.05
2018-05-16T07:06:14.155Z,18.10
2018-05-16T07:07:13.949Z,18.22
2018-05-16T07:08:34.675Z,18.35
2018-05-16T07:09:36.041Z,18.38
2018-05-16T07:10:35.177Z,18.45
2018-05-16T07:11:35.437Z,18.38
2018-05-16T07:12:35.654Z,18.35
2018-05-16T07:13:35.956Z,18.34
2018-05-16T07:14:35.370Z,18.37
2018-05-16T07:15:35.651Z,18.49
2018-05-16T07:16:35.939Z,18.52
2018-05-16T07:17:35.211Z,18.56
2018-05-16T07:18:35.439Z,18.60
2018-05-16T07:19:35.291Z,18.58
2018-05-16T07:20:35.163Z,18.58
2018-05-16T07:21:35.343Z,18.53
2018-05-16T07:22:35.118Z,18.58
2018-05-16T07:23:35.477Z,18.60
2018-05-16T07:24:35.666Z,18.55
2018-05-16T07:25:35.625Z,18.50
2018-05-16T07:26:35.677Z,18.50
2018-05-16T07:27:35.992Z,18.52
2018-05-16T07:28:34.882Z,18.56
2018-05-16T07:29:34.718Z,18.56
2018-05-16T07:30:36.284Z,18.60
2018-05-16T07:31:35.025Z,18.58
2018-05-16T07:32:35.590Z,18.63
2018-05-16T07:33:35.744Z,18.62
2018-05-16T07:34:35.932Z,18.62
2018-05-16T07:35:56.741Z,18.77
2018-05-16T07:36:56.900Z,18.89
2018-05-16T07:37:57.052Z,18.98
2018-05-16T07:38:56.903Z,19.12
2018-05-16T07:39:56.806Z,19.12
2018-05-16T07:40:56.914Z,19.18
2018-05-16T07:41:56.856Z,19.26
2018-05-16T07:42:56.844Z,19.26
2018-05-16T07:43:57.348Z,19.22
2018-05-16T07:44:57.336Z,19.24
2018-05-16T07:45:57.640Z,19.39
2018-05-16T07:46:56.890Z,19.76
2018-05-16T07:47:56.844Z,20.11
2018-05-16T07:48:57.005Z,20.39
2018-05-16T07:49:56.960Z,20.43
2018-05-16T07:50:57.082Z,20.39
2018-05-16T07:51:56.800Z,20.55
2018-05-16T07:52:56.646Z,20.77
2018-05-16T07:54:17.749Z,21.11
2018-05-16T07:55:17.851Z,21.45
2018-05-16T07:56:17.746Z,21.42
2018-05-16T07:57:17.667Z,21.30
2018-05-16T07:58:38.669Z,21.18
2018-05-16T07:59:39.278Z,21.11
2018-05-16T08:00:39.072Z,21.11
2018-05-16T08:01:38.938Z,21.03
2018-05-16T08:02:39.357Z,21.02
2018-05-16T08:03:39.512Z,20.97
2018-05-16T08:04:40.480Z,20.90
2018-05-16T08:05:38.886Z,20.82
2018-05-16T08:06:39.650Z,20.72
2018-05-16T08:07:39.797Z,21.06
2018-05-16T08:08:39.231Z,21.21
2018-05-16T08:09:38.530Z,21.30
2018-05-16T08:10:38.880Z,21.15
2018-05-16T08:11:40.319Z,21.12
2018-05-16T08:12:39.585Z,21.25
2018-05-16T08:13:39.077Z,21.32
2018-05-16T08:14:39.946Z,21.64
2018-05-16T08:15:39.287Z,21.85
2018-05-16T08:16:39.621Z,21.82
2018-05-16T08:17:38.953Z,21.69
2018-05-16T08:18:40.014Z,21.62
2018-05-16T08:20:01.023Z,21.62
2018-05-16T08:21:01.058Z,21.66
2018-05-16T08:22:02.697Z,22.06
2018-05-16T08:23:24.641Z,22.88
2018-05-16T08:24:24.015Z,23.21
2018-05-16T08:25:23.833Z,23.51
2018-05-16T08:26:24.445Z,23.59
2018-05-16T08:27:24.001Z,23.50
2018-05-16T08:28:25.461Z,23.68
2018-05-16T08:29:24.299Z,23.83
2018-05-16T08:30:24.697Z,23.88
2018-05-16T08:31:25.949Z,24.16
2018-05-16T08:32:23.838Z,24.40
2018-05-16T08:34:07.828Z,25.01
2018-05-16T08:35:08.306Z,24.85
2018-05-16T08:36:08.523Z,24.55
2018-05-16T08:37:08.456Z,24.35
2018-05-16T08:38:08.258Z,24.42
2018-05-16T08:39:10.281Z,24.39
2018-05-16T08:40:07.681Z,24.42
2018-05-16T08:41:08.439Z,24.47
2018-05-16T08:42:07.824Z,24.60
2018-05-16T08:43:08.775Z,24.92
2018-05-16T08:44:28.554Z,25.10
2018-05-16T08:45:28.476Z,25.01
2018-05-16T08:46:29.660Z,25.32
2018-05-16T08:47:28.938Z,25.46
2018-05-16T08:48:29.110Z,25.40
2018-05-16T08:49:29.157Z,25.48
2018-05-16T08:50:29.070Z,25.65
2018-05-16T08:51:29.440Z,25.72
2018-05-16T08:52:29.855Z,25.40
2018-05-16T08:53:28.689Z,25.40
2018-05-16T08:54:28.624Z,25.53
2018-05-16T08:55:28.766Z,25.59
2018-05-16T08:57:30.970Z,25.41
2018-05-16T08:58:31.353Z,25.46
2018-05-16T08:59:31.216Z,25.68
2018-05-16T09:00:31.076Z,25.78
2018-05-16T09:01:31.899Z,25.93
2018-05-16T09:02:32.359Z,26.06
2018-05-16T09:03:52.334Z,26.19
2018-05-16T09:04:52.497Z,26.22
2018-05-16T09:05:52.322Z,26.33
2018-05-16T09:06:52.414Z,26.38
2018-05-16T09:07:52.249Z,26.43
2018-05-16T09:09:33.830Z,26.74
2018-05-16T09:10:35.037Z,26.93
2018-05-16T09:11:34.274Z,27.15
2018-05-16T09:12:34.632Z,27.26
2018-05-16T09:13:35.904Z,27.30
2018-05-16T09:14:55.175Z,27.27
2018-05-16T09:15:55.151Z,27.18
2018-05-16T09:16:54.934Z,27.00
2018-05-16T09:17:55.151Z,26.78
2018-05-16T09:18:54.984Z,26.73
2018-05-16T09:19:55.353Z,26.55
2018-05-16T09:20:55.484Z,26.41
2018-05-16T09:21:55.471Z,26.37
2018-05-16T09:22:55.459Z,26.31
2018-05-16T09:23:55.754Z,26.25
2018-05-16T09:24:55.935Z,26.19
2018-05-16T09:25:54.734Z,26.22
2018-05-16T09:26:55.831Z,26.26
2018-05-16T09:27:55.102Z,26.21
2018-05-16T09:28:55.265Z,26.16
2018-05-16T09:29:56.007Z,26.26
2018-05-16T09:30:55.181Z,26.44
2018-05-16T09:31:54.957Z,26.43
2018-05-16T09:32:55.288Z,26.28
2018-05-16T09:33:55.449Z,26.31
2018-05-16T09:34:55.292Z,26.40
2018-05-16T09:35:55.134Z,26.51
2018-05-16T09:37:16.082Z,26.60
2018-05-16T09:38:16.188Z,26.71
2018-05-16T09:39:37.044Z,26.77
2018-05-16T09:40:36.793Z,26.80
2018-05-16T09:41:36.637Z,26.56
2018-05-16T09:42:37.450Z,26.53
2018-05-16T09:43:37.828Z,26.59
2018-05-16T09:44:37.044Z,26.48
2018-05-16T09:45:37.264Z,26.59
2018-05-16T09:46:36.892Z,26.45
2018-05-16T09:47:37.277Z,26.74
2018-05-16T09:49:18.300Z,27.21
2018-05-16T09:50:19.386Z,27.40
2018-05-16T09:51:19.679Z,27.58
2018-05-16T09:52:19.441Z,27.73
2018-05-16T09:53:18.997Z,27.85
2018-05-16T09:54:18.958Z,28.12
2018-05-16T09:55:18.824Z,28.38
2018-05-16T09:56:19.325Z,28.52
2018-05-16T09:57:19.107Z,28.74
2018-05-16T09:58:19.185Z,28.74
2018-05-16T09:59:39.925Z,28.97
2018-05-16T10:00:39.830Z,29.16
2018-05-16T10:01:39.981Z,29.22
2018-05-16T10:02:39.943Z,29.34
2018-05-16T10:03:39.713Z,29.27
2018-05-16T10:04:40.569Z,29.38
2018-05-16T10:05:40.914Z,29.13
2018-05-16T10:06:40.023Z,29.14
2018-05-16T10:07:40.389Z,29.22
2018-05-16T10:08:40.614Z,29.22
2018-05-16T10:10:21.468Z,29.39
2018-05-16T10:11:21.780Z,29.35
2018-05-16T10:12:21.606Z,29.36
2018-05-16T10:13:21.910Z,29.57
2018-05-16T10:14:21.681Z,29.76
2018-05-16T10:15:22.147Z,29.47
2018-05-16T10:16:22.495Z,29.68
2018-05-16T10:17:21.241Z,29.63
2018-05-16T10:18:23.281Z,29.27
2018-05-16T10:19:22.007Z,29.14
2018-05-16T10:20:22.082Z,29.35
2018-05-16T10:21:22.135Z,29.31
2018-05-16T10:22:22.425Z,29.35
2018-05-16T10:23:21.624Z,29.50
2018-05-16T10:24:21.628Z,29.49
2018-05-16T10:25:22.055Z,29.39
2018-05-16T10:26:42.861Z,29.56
2018-05-16T10:27:44.756Z,29.73
2018-05-16T10:28:43.628Z,29.78
2018-05-16T10:30:04.860Z,30.02
2018-05-16T10:31:05.681Z,30.18
2018-05-16T10:32:05.418Z,30.43
2018-05-16T10:33:05.317Z,30.85
2018-05-16T10:34:05.599Z,30.99
2018-05-16T10:35:05.761Z,30.92
2018-05-16T10:36:04.506Z,30.75
2018-05-16T10:37:49.653Z,30.31
2018-05-16T10:38:49.986Z,30.30
2018-05-16T10:39:50.343Z,30.08
2018-05-16T10:40:50.472Z,30.10
2018-05-16T10:41:49.283Z,30.02
2018-05-16T10:42:50.524Z,29.79
2018-05-16T10:43:49.913Z,30.09
2018-05-16T10:45:32.924Z,30.21
2018-05-16T10:46:33.217Z,30.00
2018-05-16T10:47:33.318Z,29.88
2018-05-16T10:48:33.405Z,29.82
2018-05-16T10:49:54.459Z,29.82
2018-05-16T10:50:54.312Z,29.90
2018-05-16T10:51:54.139Z,29.41
2018-05-16T10:52:54.905Z,29.13
2018-05-16T10:53:54.552Z,28.64
2018-05-16T10:54:54.816Z,28.49
2018-05-16T10:55:54.757Z,28.15
2018-05-16T10:57:57.717Z,27.85
2018-05-16T10:58:57.426Z,27.77
2018-05-16T10:59:58.671Z,27.65
2018-05-16T11:00:57.968Z,27.60
2018-05-16T11:01:58.196Z,27.63
2018-05-16T11:02:57.945Z,27.68
2018-05-16T11:03:57.743Z,27.63
2018-05-16T11:04:57.684Z,27.42
2018-05-16T11:05:58.029Z,27.39
2018-05-16T11:06:58.162Z,27.25
2018-05-16T11:07:58.643Z,27.14
2018-05-16T11:08:57.290Z,27.20
2018-05-16T11:09:58.608Z,27.25
2018-05-16T11:10:57.447Z,27.32
2018-05-16T11:11:58.193Z,27.60
2018-05-16T11:12:58.070Z,27.30
2018-05-16T11:14:18.727Z,27.30
2018-05-16T11:15:18.980Z,27.39
2018-05-16T11:16:19.739Z,27.64
2018-05-16T11:17:19.039Z,27.68
2018-05-16T11:18:19.060Z,27.71
2018-05-16T11:20:01.045Z,28.07
2018-05-16T11:21:01.235Z,28.04
2018-05-16T11:22:22.053Z,28.26
2018-05-16T11:23:23.271Z,28.42
2018-05-16T11:24:22.162Z,28.14
2018-05-16T11:25:22.333Z,28.17
2018-05-16T11:26:22.502Z,28.12
2018-05-16T11:28:03.844Z,28.17
2018-05-16T11:29:04.964Z,28.23
2018-05-16T11:30:05.180Z,28.35
2018-05-16T11:31:04.273Z,28.56
2018-05-16T11:33:07.907Z,28.70
2018-05-16T11:34:08.143Z,28.76
2018-05-16T11:35:08.053Z,28.66
2018-05-16T11:36:07.767Z,28.78
2018-05-16T11:37:08.119Z,28.60
2018-05-16T11:38:07.993Z,28.60
2018-05-16T11:39:08.056Z,28.70
2018-05-16T11:40:08.378Z,28.69
2018-05-16T11:41:07.230Z,28.60
2018-05-16T11:42:48.902Z,28.26
2018-05-16T11:43:49.811Z,28.45
2018-05-16T11:44:50.014Z,28.59
2018-05-16T11:45:48.943Z,28.72
2018-05-16T11:46:49.760Z,28.74
2018-05-16T11:47:49.686Z,28.72
2018-05-16T11:49:32.123Z,28.45
2018-05-16T11:50:32.043Z,28.22
2018-05-16T11:52:13.908Z,28.26
2018-05-16T11:53:15.663Z,28.26
2018-05-16T11:54:16.892Z,28.19
2018-05-16T11:55:35.341Z,28.11
2018-05-16T11:56:35.210Z,27.73
2018-05-16T11:57:35.446Z,27.35
2018-05-16T11:58:35.675Z,27.20
2018-05-16T11:59:35.897Z,27.12
2018-05-16T12:00:35.240Z,27.20
2018-05-16T12:01:35.290Z,27.29
2018-05-16T12:02:56.190Z,27.37
2018-05-16T12:03:56.160Z,27.49
2018-05-16T12:04:56.451Z,27.30
2018-05-16T12:05:56.416Z,27.30
2018-05-16T12:06:56.820Z,27.40
2018-05-16T12:07:56.328Z,27.27
2018-05-16T12:08:56.571Z,27.18
2018-05-16T12:09:56.780Z,26.84
2018-05-16T12:10:57.630Z,26.83
2018-05-16T12:11:56.994Z,26.70
2018-05-16T12:12:57.874Z,26.70
2018-05-16T12:14:17.326Z,26.89
2018-05-16T12:15:38.324Z,26.96
2018-05-16T12:16:38.380Z,26.93
2018-05-16T12:17:38.700Z,26.95
2018-05-16T12:18:39.125Z,26.96
2018-05-16T12:19:37.934Z,26.93
2018-05-16T12:20:59.419Z,26.92
2018-05-16T12:22:22.558Z,27.18
2018-05-16T12:23:43.893Z,27.59
2018-05-16T12:24:43.911Z,27.64
2018-05-16T12:25:44.175Z,27.86
2018-05-16T12:26:44.584Z,27.98
2018-05-16T12:27:44.625Z,28.08
2018-05-16T12:28:43.629Z,28.14
2018-05-16T12:29:44.522Z,28.08
2018-05-16T12:30:44.582Z,28.15
2018-05-16T12:31:43.940Z,28.19
2018-05-16T12:33:04.712Z,28.33
2018-05-16T12:34:46.339Z,28.64
2018-05-16T12:35:47.567Z,28.66
2018-05-16T12:36:46.259Z,28.81
2018-05-16T12:37:46.703Z,28.93
2018-05-16T12:38:46.754Z,29.29
2018-05-16T12:39:47.105Z,29.39
2018-05-16T12:40:47.241Z,29.61
2018-05-16T12:42:08.111Z,29.82
2018-05-16T12:43:09.330Z,29.81
2018-05-16T12:44:08.455Z,29.72
2018-05-16T12:45:29.117Z,29.53
2018-05-16T12:46:29.706Z,29.24
2018-05-16T12:47:29.516Z,29.08
2018-05-16T12:48:29.963Z,28.85
2018-05-16T12:49:30.897Z,28.86
2018-05-16T12:50:29.977Z,29.23
2018-05-16T12:51:30.572Z,29.41
2018-05-16T12:52:29.929Z,29.31
2018-05-16T12:53:30.095Z,29.22
2018-05-16T12:54:31.207Z,29.05
2018-05-16T12:55:29.108Z,28.86
2018-05-16T12:56:50.606Z,28.64
2018-05-16T12:57:51.100Z,28.54
2018-05-16T12:58:50.953Z,28.44
2018-05-16T12:59:50.948Z,28.22
2018-05-16T13:00:51.301Z,28.02
2018-05-16T13:01:51.643Z,27.85
2018-05-16T13:02:50.570Z,27.59
2018-05-16T13:03:50.580Z,27.42
2018-05-16T13:04:50.654Z,27.27
2018-05-16T13:05:51.503Z,27.15
2018-05-16T13:06:51.712Z,26.99
2018-05-16T13:07:51.164Z,26.83
2018-05-16T13:08:51.276Z,26.71
2018-05-16T13:09:51.719Z,26.60
2018-05-16T13:10:50.537Z,26.44
2018-05-16T13:11:51.490Z,26.23
2018-05-16T13:12:51.359Z,26.07
2018-05-16T13:13:51.209Z,25.93
2018-05-16T13:14:51.506Z,25.83
2018-05-16T13:15:51.250Z,25.70
2018-05-16T13:16:51.223Z,25.84
2018-05-16T13:17:51.250Z,25.84
2018-05-16T13:18:51.356Z,25.99
2018-05-16T13:19:51.402Z,26.37
2018-05-16T13:20:52.431Z,26.77
2018-05-16T13:21:51.655Z,27.14
2018-05-16T13:22:51.154Z,27.54
2018-05-16T13:23:51.499Z,27.55
2018-05-16T13:24:51.402Z,27.52
2018-05-16T13:25:52.411Z,27.80
2018-05-16T13:27:12.213Z,28.14
2018-05-16T13:28:33.536Z,28.42
2018-05-16T13:29:55.659Z,28.72
2018-05-16T13:30:56.683Z,28.72
2018-05-16T13:31:55.981Z,29.07
2018-05-16T13:32:55.858Z,29.34
2018-05-16T13:33:56.261Z,29.42
2018-05-16T13:35:16.341Z,29.86